sensor_id;sensor_type;location;lat;lon;timestamp;P1;durP1;ratioP1;P2;durP2;ratioP2
58446;SDS011;44240;51.840;7.258;2022-08-03T00:01:57;6.38;;;2.67;;
58446;SDS011;44240;51.840;7.258;2022-08-03T00:04:23;2.78;;;2.53;;
58446;SDS011;44240;51.840;7.258;2022-08-03T00:06:48;5.05;;;2.80;;
58446;SDS011;44240;51.840;7.258;2022-08-03T00:09:14;3.22;;;2.25;;
58446;SDS011;44240;51.840;7.258;2022-08-03T00:11:40;2.95;;;2.65;;
58446;SDS011;44240;51.840;7.258;2022-08-03T00:14:05;2.75;;;2.40;;
58446;SDS011;44240;51.840;7.258;2022-08-03T00:16:31;3.95;;;2.67;;
58446;SDS011;44240;51.840;7.258;2022-08-03T00:18:57;4.25;;;2.70;;
58446;SDS011;44240;51.840;7.258;2022-08-03T00:21:22;2.90;;;2.60;;
58446;SDS011;44240;51.840;7.258;2022-08-03T00:23:48;3.08;;;2.65;;
58446;SDS011;44240;51.840;7.258;2022-08-03T00:26:13;4.30;;;3.05;;
58446;SDS011;44240;51.840;7.258;2022-08-03T00:28:39;3.72;;;2.38;;
58446;SDS011;44240;51.840;7.258;2022-08-03T00:31:05;2.60;;;2.40;;
58446;SDS011;44240;51.840;7.258;2022-08-03T00:33:31;2.90;;;2.47;;
58446;SDS011;44240;51.840;7.258;2022-08-03T00:35:56;3.92;;;2.65;;
58446;SDS011;44240;51.840;7.258;2022-08-03T00:38:22;4.15;;;2.40;;
58446;SDS011;44240;51.840;7.258;2022-08-03T00:40:47;4.75;;;2.47;;
58446;SDS011;44240;51.840;7.258;2022-08-03T00:43:13;3.70;;;2.40;;
58446;SDS011;44240;51.840;7.258;2022-08-03T00:45:40;4.35;;;2.72;;
58446;SDS011;44240;51.840;7.258;2022-08-03T00:48:07;3.55;;;2.50;;
58446;SDS011;44240;51.840;7.258;2022-08-03T00:50:35;4.10;;;2.70;;
58446;SDS011;44240;51.840;7.258;2022-08-03T00:53:04;3.53;;;2.70;;
58446;SDS011;44240;51.840;7.258;2022-08-03T00:55:31;4.32;;;2.90;;
58446;SDS011;44240;51.840;7.258;2022-08-03T00:57:57;2.67;;;2.47;;
58446;SDS011;44240;51.840;7.258;2022-08-03T01:00:26;3.38;;;3.08;;
58446;SDS011;44240;51.840;7.258;2022-08-03T01:02:52;4.43;;;2.25;;
58446;SDS011;44240;51.840;7.258;2022-08-03T01:05:19;3.10;;;2.72;;
58446;SDS011;44240;51.840;7.258;2022-08-03T01:07:59;3.00;;;2.53;;
58446;SDS011;44240;51.840;7.258;2022-08-03T01:10:51;4.50;;;2.85;;
58446;SDS011;44240;51.840;7.258;2022-08-03T01:16:07;4.50;;;2.80;;
58446;SDS011;44240;51.840;7.258;2022-08-03T01:25:30;2.90;;;2.67;;
58446;SDS011;44240;51.840;7.258;2022-08-03T01:30:52;5.95;;;3.50;;
58446;SDS011;44240;51.840;7.258;2022-08-03T01:33:23;3.60;;;2.90;;
58446;SDS011;44240;51.840;7.258;2022-08-03T01:35:56;4.80;;;3.20;;
58446;SDS011;44240;51.840;7.258;2022-08-03T01:38:43;3.15;;;2.85;;
58446;SDS011;44240;51.840;7.258;2022-08-03T01:41:14;3.75;;;3.20;;
58446;SDS011;44240;51.840;7.258;2022-08-03T01:43:44;4.80;;;3.28;;
58446;SDS011;44240;51.840;7.258;2022-08-03T01:46:14;4.85;;;2.97;;
58446;SDS011;44240;51.840;7.258;2022-08-03T01:48:41;6.75;;;3.08;;
58446;SDS011;44240;51.840;7.258;2022-08-03T01:51:08;4.47;;;3.22;;
58446;SDS011;44240;51.840;7.258;2022-08-03T01:53:36;6.80;;;3.17;;
58446;SDS011;44240;51.840;7.258;2022-08-03T01:56:04;6.65;;;3.40;;
58446;SDS011;44240;51.840;7.258;2022-08-03T01:58:31;3.60;;;2.95;;
58446;SDS011;44240;51.840;7.258;2022-08-03T02:01:00;5.20;;;2.95;;
58446;SDS011;44240;51.840;7.258;2022-08-03T02:03:27;3.92;;;3.50;;
58446;SDS011;44240;51.840;7.258;2022-08-03T02:05:54;4.68;;;3.28;;
58446;SDS011;44240;51.840;7.258;2022-08-03T02:08:22;3.85;;;3.05;;
58446;SDS011;44240;51.840;7.258;2022-08-03T02:10:49;4.72;;;3.08;;
58446;SDS011;44240;51.840;7.258;2022-08-03T02:13:16;4.35;;;3.10;;
58446;SDS011;44240;51.840;7.258;2022-08-03T02:15:44;6.10;;;3.25;;
58446;SDS011;44240;51.840;7.258;2022-08-03T02:18:11;6.50;;;3.33;;
58446;SDS011;44240;51.840;7.258;2022-08-03T02:20:40;6.22;;;3.35;;
58446;SDS011;44240;51.840;7.258;2022-08-03T02:23:07;6.32;;;3.83;;
58446;SDS011;44240;51.840;7.258;2022-08-03T02:25:34;5.82;;;3.38;;
58446;SDS011;44240;51.840;7.258;2022-08-03T02:28:06;3.90;;;3.22;;
58446;SDS011;44240;51.840;7.258;2022-08-03T02:30:36;4.80;;;3.50;;
58446;SDS011;44240;51.840;7.258;2022-08-03T02:33:06;7.80;;;3.35;;
58446;SDS011;44240;51.840;7.258;2022-08-03T02:35:36;3.22;;;2.92;;
58446;SDS011;44240;51.840;7.258;2022-08-03T02:38:04;5.10;;;3.58;;
58446;SDS011;44240;51.840;7.258;2022-08-03T02:40:34;4.25;;;3.15;;
58446;SDS011;44240;51.840;7.258;2022-08-03T02:43:02;3.92;;;3.53;;
58446;SDS011;44240;51.840;7.258;2022-08-03T02:45:34;4.45;;;3.60;;
58446;SDS011;44240;51.840;7.258;2022-08-03T02:48:05;4.13;;;3.72;;
58446;SDS011;44240;51.840;7.258;2022-08-03T02:50:32;9.80;;;3.90;;
58446;SDS011;44240;51.840;7.258;2022-08-03T02:52:59;5.15;;;3.50;;
58446;SDS011;44240;51.840;7.258;2022-08-03T02:55:26;4.82;;;3.50;;
58446;SDS011;44240;51.840;7.258;2022-08-03T02:57:53;4.60;;;4.07;;
58446;SDS011;44240;51.840;7.258;2022-08-03T03:00:21;4.15;;;3.70;;
58446;SDS011;44240;51.840;7.258;2022-08-03T03:02:47;5.63;;;4.45;;
58446;SDS011;44240;51.840;7.258;2022-08-03T03:05:13;4.65;;;4.10;;
58446;SDS011;44240;51.840;7.258;2022-08-03T03:07:40;4.40;;;3.70;;
58446;SDS011;44240;51.840;7.258;2022-08-03T03:10:07;7.88;;;3.90;;
58446;SDS011;44240;51.840;7.258;2022-08-03T03:12:34;5.43;;;4.03;;
58446;SDS011;44240;51.840;7.258;2022-08-03T03:15:03;7.50;;;3.75;;
58446;SDS011;44240;51.840;7.258;2022-08-03T03:17:30;7.88;;;3.72;;
58446;SDS011;44240;51.840;7.258;2022-08-03T03:19:57;6.18;;;3.65;;
58446;SDS011;44240;51.840;7.258;2022-08-03T03:22:24;5.60;;;3.67;;
58446;SDS011;44240;51.840;7.258;2022-08-03T03:24:51;5.72;;;4.22;;
58446;SDS011;44240;51.840;7.258;2022-08-03T03:27:18;5.47;;;4.10;;
58446;SDS011;44240;51.840;7.258;2022-08-03T03:29:45;5.53;;;3.80;;
58446;SDS011;44240;51.840;7.258;2022-08-03T03:32:12;5.43;;;3.90;;
58446;SDS011;44240;51.840;7.258;2022-08-03T03:34:37;6.20;;;3.78;;
58446;SDS011;44240;51.840;7.258;2022-08-03T03:37:03;10.65;;;3.92;;
58446;SDS011;44240;51.840;7.258;2022-08-03T03:39:29;5.47;;;3.70;;
58446;SDS011;44240;51.840;7.258;2022-08-03T03:41:55;4.85;;;4.05;;
58446;SDS011;44240;51.840;7.258;2022-08-03T03:44:25;5.72;;;4.30;;
58446;SDS011;44240;51.840;7.258;2022-08-03T03:46:54;4.88;;;4.35;;
58446;SDS011;44240;51.840;7.258;2022-08-03T03:49:21;6.18;;;4.20;;
58446;SDS011;44240;51.840;7.258;2022-08-03T03:51:47;5.70;;;3.80;;
58446;SDS011;44240;51.840;7.258;2022-08-03T03:54:16;7.22;;;3.97;;
58446;SDS011;44240;51.840;7.258;2022-08-03T03:56:41;4.55;;;4.10;;
58446;SDS011;44240;51.840;7.258;2022-08-03T03:59:07;5.57;;;4.05;;
58446;SDS011;44240;51.840;7.258;2022-08-03T04:01:32;4.80;;;4.00;;
58446;SDS011;44240;51.840;7.258;2022-08-03T04:03:58;5.00;;;4.15;;
58446;SDS011;44240;51.840;7.258;2022-08-03T04:06:44;4.88;;;3.70;;
58446;SDS011;44240;51.840;7.258;2022-08-03T04:09:28;5.72;;;4.10;;
58446;SDS011;44240;51.840;7.258;2022-08-03T04:12:14;4.35;;;3.85;;
58446;SDS011;44240;51.840;7.258;2022-08-03T04:14:42;4.38;;;3.95;;
58446;SDS011;44240;51.840;7.258;2022-08-03T04:17:10;5.68;;;4.22;;
58446;SDS011;44240;51.840;7.258;2022-08-03T04:19:42;5.35;;;4.40;;
58446;SDS011;44240;51.840;7.258;2022-08-03T04:22:13;5.75;;;4.32;;
58446;SDS011;44240;51.840;7.258;2022-08-03T04:24:46;7.05;;;4.63;;
58446;SDS011;44240;51.840;7.258;2022-08-03T04:27:20;9.57;;;4.97;;
58446;SDS011;44240;51.840;7.258;2022-08-03T04:29:50;7.28;;;4.55;;
58446;SDS011;44240;51.840;7.258;2022-08-03T04:32:17;5.60;;;4.75;;
58446;SDS011;44240;51.840;7.258;2022-08-03T04:34:45;7.85;;;5.10;;
58446;SDS011;44240;51.840;7.258;2022-08-03T04:37:12;4.93;;;4.43;;
58446;SDS011;44240;51.840;7.258;2022-08-03T04:39:45;6.60;;;4.78;;
58446;SDS011;44240;51.840;7.258;2022-08-03T04:42:13;8.88;;;4.38;;
58446;SDS011;44240;51.840;7.258;2022-08-03T04:44:40;5.00;;;4.20;;
58446;SDS011;44240;51.840;7.258;2022-08-03T04:47:09;6.63;;;4.43;;
58446;SDS011;44240;51.840;7.258;2022-08-03T04:49:35;6.53;;;4.72;;
58446;SDS011;44240;51.840;7.258;2022-08-03T04:52:01;4.35;;;3.88;;
58446;SDS011;44240;51.840;7.258;2022-08-03T04:54:28;5.95;;;4.57;;
58446;SDS011;44240;51.840;7.258;2022-08-03T04:56:55;6.68;;;4.30;;
58446;SDS011;44240;51.840;7.258;2022-08-03T04:59:21;7.88;;;4.30;;
58446;SDS011;44240;51.840;7.258;2022-08-03T05:01:46;7.15;;;4.55;;
58446;SDS011;44240;51.840;7.258;2022-08-03T05:04:12;7.68;;;4.65;;
58446;SDS011;44240;51.840;7.258;2022-08-03T05:06:38;6.15;;;4.57;;
58446;SDS011;44240;51.840;7.258;2022-08-03T05:09:04;9.68;;;4.75;;
58446;SDS011;44240;51.840;7.258;2022-08-03T05:11:29;7.13;;;4.80;;
58446;SDS011;44240;51.840;7.258;2022-08-03T05:13:55;4.50;;;4.05;;
58446;SDS011;44240;51.840;7.258;2022-08-03T05:16:21;7.90;;;4.90;;
58446;SDS011;44240;51.840;7.258;2022-08-03T05:18:46;7.93;;;4.60;;
58446;SDS011;44240;51.840;7.258;2022-08-03T05:21:12;8.48;;;4.60;;
58446;SDS011;44240;51.840;7.258;2022-08-03T05:23:38;8.57;;;4.35;;
58446;SDS011;44240;51.840;7.258;2022-08-03T05:26:05;5.88;;;3.78;;
58446;SDS011;44240;51.840;7.258;2022-08-03T05:28:30;6.32;;;3.97;;
58446;SDS011;44240;51.840;7.258;2022-08-03T05:30:56;7.55;;;4.38;;
58446;SDS011;44240;51.840;7.258;2022-08-03T05:33:22;4.50;;;3.90;;
58446;SDS011;44240;51.840;7.258;2022-08-03T05:35:48;6.38;;;4.60;;
58446;SDS011;44240;51.840;7.258;2022-08-03T05:38:13;4.53;;;4.05;;
58446;SDS011;44240;51.840;7.258;2022-08-03T05:40:39;5.22;;;3.95;;
58446;SDS011;44240;51.840;7.258;2022-08-03T05:43:05;8.02;;;4.75;;
58446;SDS011;44240;51.840;7.258;2022-08-03T05:45:31;12.00;;;4.70;;
58446;SDS011;44240;51.840;7.258;2022-08-03T05:47:57;8.65;;;4.72;;
58446;SDS011;44240;51.840;7.258;2022-08-03T05:50:23;5.88;;;4.15;;
58446;SDS011;44240;51.840;7.258;2022-08-03T05:52:49;4.95;;;4.25;;
58446;SDS011;44240;51.840;7.258;2022-08-03T05:55:15;6.22;;;4.22;;
58446;SDS011;44240;51.840;7.258;2022-08-03T05:57:40;6.72;;;4.07;;
58446;SDS011;44240;51.840;7.258;2022-08-03T06:00:08;4.88;;;3.70;;
58446;SDS011;44240;51.840;7.258;2022-08-03T06:02:35;6.85;;;3.10;;
58446;SDS011;44240;51.840;7.258;2022-08-03T06:05:00;5.00;;;4.32;;
58446;SDS011;44240;51.840;7.258;2022-08-03T06:07:26;5.10;;;4.32;;
58446;SDS011;44240;51.840;7.258;2022-08-03T06:09:52;5.43;;;4.15;;
58446;SDS011;44240;51.840;7.258;2022-08-03T06:12:18;9.90;;;4.65;;
58446;SDS011;44240;51.840;7.258;2022-08-03T06:14:44;8.40;;;4.53;;
58446;SDS011;44240;51.840;7.258;2022-08-03T06:17:09;5.72;;;4.43;;
58446;SDS011;44240;51.840;7.258;2022-08-03T06:19:35;6.68;;;5.32;;
58446;SDS011;44240;51.840;7.258;2022-08-03T06:22:01;8.38;;;4.47;;
58446;SDS011;44240;51.840;7.258;2022-08-03T06:24:27;11.18;;;5.15;;
58446;SDS011;44240;51.840;7.258;2022-08-03T06:26:52;8.95;;;4.57;;
58446;SDS011;44240;51.840;7.258;2022-08-03T06:29:18;5.72;;;4.07;;
58446;SDS011;44240;51.840;7.258;2022-08-03T06:31:44;9.52;;;4.13;;
58446;SDS011;44240;51.840;7.258;2022-08-03T06:34:09;7.63;;;4.38;;
58446;SDS011;44240;51.840;7.258;2022-08-03T06:36:35;7.50;;;4.38;;
58446;SDS011;44240;51.840;7.258;2022-08-03T06:39:01;9.40;;;4.93;;
58446;SDS011;44240;51.840;7.258;2022-08-03T06:41:27;10.05;;;4.70;;
58446;SDS011;44240;51.840;7.258;2022-08-03T06:43:53;8.15;;;4.70;;
58446;SDS011;44240;51.840;7.258;2022-08-03T06:46:19;10.48;;;5.10;;
58446;SDS011;44240;51.840;7.258;2022-08-03T06:48:46;9.77;;;5.03;;
58446;SDS011;44240;51.840;7.258;2022-08-03T06:51:11;9.73;;;5.10;;
58446;SDS011;44240;51.840;7.258;2022-08-03T06:53:37;7.90;;;4.43;;
58446;SDS011;44240;51.840;7.258;2022-08-03T06:56:03;8.45;;;4.95;;
58446;SDS011;44240;51.840;7.258;2022-08-03T06:58:29;9.70;;;4.55;;
58446;SDS011;44240;51.840;7.258;2022-08-03T07:00:55;11.52;;;4.80;;
58446;SDS011;44240;51.840;7.258;2022-08-03T07:03:21;9.73;;;4.43;;
58446;SDS011;44240;51.840;7.258;2022-08-03T07:05:46;6.93;;;4.18;;
58446;SDS011;44240;51.840;7.258;2022-08-03T07:08:15;8.70;;;3.88;;
58446;SDS011;44240;51.840;7.258;2022-08-03T07:10:40;8.40;;;4.00;;
58446;SDS011;44240;51.840;7.258;2022-08-03T07:13:06;6.15;;;4.10;;
58446;SDS011;44240;51.840;7.258;2022-08-03T07:15:32;10.98;;;4.75;;
58446;SDS011;44240;51.840;7.258;2022-08-03T07:17:58;6.60;;;3.95;;
58446;SDS011;44240;51.840;7.258;2022-08-03T07:20:24;7.25;;;3.80;;
58446;SDS011;44240;51.840;7.258;2022-08-03T07:22:49;10.77;;;3.63;;
58446;SDS011;44240;51.840;7.258;2022-08-03T07:25:15;11.10;;;3.40;;
58446;SDS011;44240;51.840;7.258;2022-08-03T07:27:44;10.30;;;3.35;;
58446;SDS011;44240;51.840;7.258;2022-08-03T07:30:11;6.20;;;3.33;;
58446;SDS011;44240;51.840;7.258;2022-08-03T07:32:37;4.55;;;2.60;;
58446;SDS011;44240;51.840;7.258;2022-08-03T07:35:03;5.80;;;2.95;;
58446;SDS011;44240;51.840;7.258;2022-08-03T07:37:30;6.75;;;2.88;;
58446;SDS011;44240;51.840;7.258;2022-08-03T07:39:57;5.38;;;2.40;;
58446;SDS011;44240;51.840;7.258;2022-08-03T07:42:26;3.47;;;2.42;;
58446;SDS011;44240;51.840;7.258;2022-08-03T07:44:53;10.00;;;2.95;;
58446;SDS011;44240;51.840;7.258;2022-08-03T07:47:20;6.88;;;2.22;;
58446;SDS011;44240;51.840;7.258;2022-08-03T07:49:49;3.72;;;2.00;;
58446;SDS011;44240;51.840;7.258;2022-08-03T07:52:14;6.75;;;2.20;;
58446;SDS011;44240;51.840;7.258;2022-08-03T07:54:58;4.63;;;2.35;;
58446;SDS011;44240;51.840;7.258;2022-08-03T07:57:24;5.95;;;2.13;;
58446;SDS011;44240;51.840;7.258;2022-08-03T07:59:50;5.07;;;2.45;;
58446;SDS011;44240;51.840;7.258;2022-08-03T08:02:15;8.57;;;2.25;;
58446;SDS011;44240;51.840;7.258;2022-08-03T08:04:41;6.35;;;2.22;;
58446;SDS011;44240;51.840;7.258;2022-08-03T08:07:06;8.80;;;2.58;;
58446;SDS011;44240;51.840;7.258;2022-08-03T08:09:32;4.88;;;2.20;;
58446;SDS011;44240;51.840;7.258;2022-08-03T08:11:58;4.40;;;1.80;;
58446;SDS011;44240;51.840;7.258;2022-08-03T08:14:23;3.63;;;1.98;;
58446;SDS011;44240;51.840;7.258;2022-08-03T08:16:49;7.40;;;2.50;;
58446;SDS011;44240;51.840;7.258;2022-08-03T08:19:15;7.30;;;3.10;;
58446;SDS011;44240;51.840;7.258;2022-08-03T08:21:42;4.85;;;2.55;;
58446;SDS011;44240;51.840;7.258;2022-08-03T08:24:08;4.05;;;2.05;;
58446;SDS011;44240;51.840;7.258;2022-08-03T08:26:33;5.53;;;2.25;;
58446;SDS011;44240;51.840;7.258;2022-08-03T08:28:59;5.38;;;1.75;;
58446;SDS011;44240;51.840;7.258;2022-08-03T08:31:25;4.47;;;2.22;;
58446;SDS011;44240;51.840;7.258;2022-08-03T08:33:50;6.03;;;2.63;;
58446;SDS011;44240;51.840;7.258;2022-08-03T08:36:16;7.75;;;2.83;;
58446;SDS011;44240;51.840;7.258;2022-08-03T08:38:42;5.00;;;2.13;;
58446;SDS011;44240;51.840;7.258;2022-08-03T08:41:09;5.28;;;2.00;;
58446;SDS011;44240;51.840;7.258;2022-08-03T08:43:35;7.20;;;2.53;;
58446;SDS011;44240;51.840;7.258;2022-08-03T08:46:00;6.38;;;2.83;;
58446;SDS011;44240;51.840;7.258;2022-08-03T08:48:27;5.53;;;2.50;;
58446;SDS011;44240;51.840;7.258;2022-08-03T08:50:55;3.05;;;2.05;;
58446;SDS011;44240;51.840;7.258;2022-08-03T08:53:22;4.97;;;2.13;;
58446;SDS011;44240;51.840;7.258;2022-08-03T08:55:51;6.03;;;2.67;;
58446;SDS011;44240;51.840;7.258;2022-08-03T08:58:20;7.45;;;2.72;;
58446;SDS011;44240;51.840;7.258;2022-08-03T09:00:47;2.08;;;1.73;;
58446;SDS011;44240;51.840;7.258;2022-08-03T09:03:13;5.38;;;1.83;;
58446;SDS011;44240;51.840;7.258;2022-08-03T09:05:41;6.45;;;1.98;;
58446;SDS011;44240;51.840;7.258;2022-08-03T09:08:07;5.25;;;2.33;;
58446;SDS011;44240;51.840;7.258;2022-08-03T09:10:33;4.32;;;2.30;;
58446;SDS011;44240;51.840;7.258;2022-08-03T09:12:59;3.13;;;1.88;;
58446;SDS011;44240;51.840;7.258;2022-08-03T09:15:25;5.53;;;1.95;;
58446;SDS011;44240;51.840;7.258;2022-08-03T09:17:52;5.88;;;2.55;;
58446;SDS011;44240;51.840;7.258;2022-08-03T09:20:20;3.90;;;2.33;;
58446;SDS011;44240;51.840;7.258;2022-08-03T09:22:50;5.68;;;2.70;;
58446;SDS011;44240;51.840;7.258;2022-08-03T09:25:16;5.32;;;2.60;;
58446;SDS011;44240;51.840;7.258;2022-08-03T09:27:45;2.40;;;1.98;;
58446;SDS011;44240;51.840;7.258;2022-08-03T09:30:14;4.22;;;2.03;;
58446;SDS011;44240;51.840;7.258;2022-08-03T09:32:41;4.53;;;2.53;;
58446;SDS011;44240;51.840;7.258;2022-08-03T09:35:09;7.50;;;2.78;;
58446;SDS011;44240;51.840;7.258;2022-08-03T09:37:35;4.47;;;2.70;;
58446;SDS011;44240;51.840;7.258;2022-08-03T09:40:01;3.58;;;2.65;;
58446;SDS011;44240;51.840;7.258;2022-08-03T09:42:28;7.10;;;2.72;;
58446;SDS011;44240;51.840;7.258;2022-08-03T09:44:53;4.88;;;2.70;;
58446;SDS011;44240;51.840;7.258;2022-08-03T09:47:29;5.22;;;2.67;;
58446;SDS011;44240;51.840;7.258;2022-08-03T09:50:03;5.45;;;2.72;;
58446;SDS011;44240;51.840;7.258;2022-08-03T09:52:32;6.78;;;2.50;;
58446;SDS011;44240;51.840;7.258;2022-08-03T09:54:59;5.43;;;2.90;;
58446;SDS011;44240;51.840;7.258;2022-08-03T09:57:26;6.22;;;2.63;;
58446;SDS011;44240;51.840;7.258;2022-08-03T09:59:54;8.45;;;3.22;;
58446;SDS011;44240;51.840;7.258;2022-08-03T10:02:37;8.02;;;2.50;;
58446;SDS011;44240;51.840;7.258;2022-08-03T10:05:04;10.05;;;2.75;;
58446;SDS011;44240;51.840;7.258;2022-08-03T10:07:40;6.78;;;3.20;;
58446;SDS011;44240;51.840;7.258;2022-08-03T10:10:13;6.25;;;2.70;;
58446;SDS011;44240;51.840;7.258;2022-08-03T10:12:40;10.57;;;2.90;;
58446;SDS011;44240;51.840;7.258;2022-08-03T10:15:07;6.72;;;2.53;;
58446;SDS011;44240;51.840;7.258;2022-08-03T10:17:34;6.05;;;2.88;;
58446;SDS011;44240;51.840;7.258;2022-08-03T10:20:00;5.57;;;2.67;;
58446;SDS011;44240;51.840;7.258;2022-08-03T10:22:27;4.78;;;2.50;;
58446;SDS011;44240;51.840;7.258;2022-08-03T10:24:58;7.85;;;2.70;;
58446;SDS011;44240;51.840;7.258;2022-08-03T10:27:25;5.35;;;2.50;;
58446;SDS011;44240;51.840;7.258;2022-08-03T10:29:55;5.07;;;2.63;;
58446;SDS011;44240;51.840;7.258;2022-08-03T10:32:30;7.60;;;2.38;;
58446;SDS011;44240;51.840;7.258;2022-08-03T10:35:07;6.57;;;2.63;;
58446;SDS011;44240;51.840;7.258;2022-08-03T10:37:37;5.25;;;2.58;;
58446;SDS011;44240;51.840;7.258;2022-08-03T10:40:06;7.85;;;2.88;;
58446;SDS011;44240;51.840;7.258;2022-08-03T10:42:34;5.80;;;2.15;;
58446;SDS011;44240;51.840;7.258;2022-08-03T10:45:03;13.63;;;2.70;;
58446;SDS011;44240;51.840;7.258;2022-08-03T10:47:30;4.20;;;2.15;;
58446;SDS011;44240;51.840;7.258;2022-08-03T10:49:57;8.15;;;2.70;;
58446;SDS011;44240;51.840;7.258;2022-08-03T10:52:23;4.82;;;2.55;;
58446;SDS011;44240;51.840;7.258;2022-08-03T10:54:49;7.57;;;2.33;;
58446;SDS011;44240;51.840;7.258;2022-08-03T11:00:16;5.72;;;2.28;;
58446;SDS011;44240;51.840;7.258;2022-08-03T11:05:27;7.50;;;2.30;;
58446;SDS011;44240;51.840;7.258;2022-08-03T11:10:43;6.47;;;1.67;;
58446;SDS011;44240;51.840;7.258;2022-08-03T11:13:09;8.27;;;1.98;;
58446;SDS011;44240;51.840;7.258;2022-08-03T11:15:39;7.30;;;1.88;;
58446;SDS011;44240;51.840;7.258;2022-08-03T11:18:08;4.30;;;1.67;;
58446;SDS011;44240;51.840;7.258;2022-08-03T11:23:18;5.32;;;1.83;;
58446;SDS011;44240;51.840;7.258;2022-08-03T11:28:36;6.20;;;2.10;;
58446;SDS011;44240;51.840;7.258;2022-08-03T11:34:05;6.72;;;1.60;;
58446;SDS011;44240;51.840;7.258;2022-08-03T11:39:42;3.88;;;1.63;;
58446;SDS011;44240;51.840;7.258;2022-08-03T11:42:55;4.38;;;1.92;;
58446;SDS011;44240;51.840;7.258;2022-08-03T11:44:59;4.35;;;1.83;;
58446;SDS011;44240;51.840;7.258;2022-08-03T11:47:28;7.05;;;1.52;;
58446;SDS011;44240;51.840;7.258;2022-08-03T11:49:57;7.20;;;2.20;;
58446;SDS011;44240;51.840;7.258;2022-08-03T11:52:25;4.00;;;1.85;;
58446;SDS011;44240;51.840;7.258;2022-08-03T11:54:51;5.30;;;1.90;;
58446;SDS011;44240;51.840;7.258;2022-08-03T11:57:27;5.65;;;1.90;;
58446;SDS011;44240;51.840;7.258;2022-08-03T11:59:54;7.60;;;2.88;;
58446;SDS011;44240;51.840;7.258;2022-08-03T12:02:19;5.53;;;1.80;;
58446;SDS011;44240;51.840;7.258;2022-08-03T12:04:49;7.47;;;2.22;;
58446;SDS011;44240;51.840;7.258;2022-08-03T12:07:15;9.75;;;2.00;;
58446;SDS011;44240;51.840;7.258;2022-08-03T12:09:41;9.38;;;1.92;;
58446;SDS011;44240;51.840;7.258;2022-08-03T12:12:07;5.28;;;2.10;;
58446;SDS011;44240;51.840;7.258;2022-08-03T12:14:33;7.03;;;2.92;;
58446;SDS011;44240;51.840;7.258;2022-08-03T12:16:59;4.05;;;1.70;;
58446;SDS011;44240;51.840;7.258;2022-08-03T12:19:24;5.68;;;1.95;;
58446;SDS011;44240;51.840;7.258;2022-08-03T12:21:50;7.22;;;1.73;;
58446;SDS011;44240;51.840;7.258;2022-08-03T12:24:15;3.80;;;1.88;;
58446;SDS011;44240;51.840;7.258;2022-08-03T12:26:42;5.47;;;1.95;;
58446;SDS011;44240;51.840;7.258;2022-08-03T12:29:17;6.40;;;2.10;;
58446;SDS011;44240;51.840;7.258;2022-08-03T12:31:44;8.05;;;1.80;;
58446;SDS011;44240;51.840;7.258;2022-08-03T12:34:09;5.38;;;2.65;;
58446;SDS011;44240;51.840;7.258;2022-08-03T12:36:37;5.32;;;1.85;;
58446;SDS011;44240;51.840;7.258;2022-08-03T12:39:04;5.72;;;1.50;;
58446;SDS011;44240;51.840;7.258;2022-08-03T12:41:31;5.38;;;1.58;;
58446;SDS011;44240;51.840;7.258;2022-08-03T12:43:59;3.40;;;1.75;;
58446;SDS011;44240;51.840;7.258;2022-08-03T12:46:38;3.25;;;1.60;;
58446;SDS011;44240;51.840;7.258;2022-08-03T12:49:12;4.85;;;1.20;;
58446;SDS011;44240;51.840;7.258;2022-08-03T12:54:18;6.30;;;1.27;;
58446;SDS011;44240;51.840;7.258;2022-08-03T12:56:58;6.85;;;1.98;;
58446;SDS011;44240;51.840;7.258;2022-08-03T12:59:29;7.53;;;1.40;;
58446;SDS011;44240;51.840;7.258;2022-08-03T13:02:04;8.65;;;2.20;;
58446;SDS011;44240;51.840;7.258;2022-08-03T13:04:31;6.45;;;1.80;;
58446;SDS011;44240;51.840;7.258;2022-08-03T13:09:39;5.00;;;1.65;;
58446;SDS011;44240;51.840;7.258;2022-08-03T13:12:07;8.20;;;2.15;;
58446;SDS011;44240;51.840;7.258;2022-08-03T13:14:37;9.48;;;2.13;;
58446;SDS011;44240;51.840;7.258;2022-08-03T13:17:03;5.15;;;1.55;;
58446;SDS011;44240;51.840;7.258;2022-08-03T13:19:30;4.40;;;1.20;;
58446;SDS011;44240;51.840;7.258;2022-08-03T13:21:57;8.10;;;1.63;;
58446;SDS011;44240;51.840;7.258;2022-08-03T13:24:23;3.45;;;1.77;;
58446;SDS011;44240;51.840;7.258;2022-08-03T13:26:48;4.97;;;1.40;;
58446;SDS011;44240;51.840;7.258;2022-08-03T13:29:15;6.30;;;1.85;;
58446;SDS011;44240;51.840;7.258;2022-08-03T13:31:41;2.55;;;1.10;;
58446;SDS011;44240;51.840;7.258;2022-08-03T13:34:06;6.57;;;1.42;;
58446;SDS011;44240;51.840;7.258;2022-08-03T13:36:32;7.78;;;1.27;;
58446;SDS011;44240;51.840;7.258;2022-08-03T13:38:57;3.83;;;1.20;;
58446;SDS011;44240;51.840;7.258;2022-08-03T13:41:23;3.50;;;1.10;;
58446;SDS011;44240;51.840;7.258;2022-08-03T13:43:48;5.72;;;1.77;;
58446;SDS011;44240;51.840;7.258;2022-08-03T13:46:14;2.50;;;1.17;;
58446;SDS011;44240;51.840;7.258;2022-08-03T13:48:39;3.70;;;1.08;;
58446;SDS011;44240;51.840;7.258;2022-08-03T13:51:05;4.20;;;1.30;;
58446;SDS011;44240;51.840;7.258;2022-08-03T13:53:30;4.28;;;1.17;;
58446;SDS011;44240;51.840;7.258;2022-08-03T13:55:56;2.97;;;1.20;;
58446;SDS011;44240;51.840;7.258;2022-08-03T13:58:21;6.15;;;1.55;;
58446;SDS011;44240;51.840;7.258;2022-08-03T14:00:47;6.68;;;1.60;;
58446;SDS011;44240;51.840;7.258;2022-08-03T14:03:12;3.67;;;1.20;;
58446;SDS011;44240;51.840;7.258;2022-08-03T14:05:38;5.20;;;1.45;;
58446;SDS011;44240;51.840;7.258;2022-08-03T14:08:04;3.15;;;1.02;;
58446;SDS011;44240;51.840;7.258;2022-08-03T14:10:31;2.60;;;1.23;;
58446;SDS011;44240;51.840;7.258;2022-08-03T14:12:58;5.50;;;1.25;;
58446;SDS011;44240;51.840;7.258;2022-08-03T14:15:24;3.85;;;1.27;;
58446;SDS011;44240;51.840;7.258;2022-08-03T14:17:50;2.65;;;1.27;;
58446;SDS011;44240;51.840;7.258;2022-08-03T14:20:16;4.97;;;1.20;;
58446;SDS011;44240;51.840;7.258;2022-08-03T14:22:41;3.85;;;1.30;;
58446;SDS011;44240;51.840;7.258;2022-08-03T14:25:07;7.07;;;1.52;;
58446;SDS011;44240;51.840;7.258;2022-08-03T14:27:33;1.70;;;1.10;;
58446;SDS011;44240;51.840;7.258;2022-08-03T14:29:59;2.67;;;1.20;;
58446;SDS011;44240;51.840;7.258;2022-08-03T14:32:25;3.78;;;1.48;;
58446;SDS011;44240;51.840;7.258;2022-08-03T14:34:51;3.05;;;1.17;;
58446;SDS011;44240;51.840;7.258;2022-08-03T14:37:17;2.78;;;1.02;;
58446;SDS011;44240;51.840;7.258;2022-08-03T14:39:42;7.88;;;1.30;;
58446;SDS011;44240;51.840;7.258;2022-08-03T14:42:08;1.75;;;0.85;;
58446;SDS011;44240;51.840;7.258;2022-08-03T14:44:33;2.13;;;0.90;;
58446;SDS011;44240;51.840;7.258;2022-08-03T14:46:59;4.97;;;1.13;;
58446;SDS011;44240;51.840;7.258;2022-08-03T14:49:24;3.85;;;1.13;;
58446;SDS011;44240;51.840;7.258;2022-08-03T14:51:50;3.40;;;1.50;;
58446;SDS011;44240;51.840;7.258;2022-08-03T14:54:16;4.20;;;1.20;;
58446;SDS011;44240;51.840;7.258;2022-08-03T14:56:41;3.83;;;1.10;;
58446;SDS011;44240;51.840;7.258;2022-08-03T14:59:07;4.03;;;1.00;;
58446;SDS011;44240;51.840;7.258;2022-08-03T15:01:32;2.78;;;0.80;;
58446;SDS011;44240;51.840;7.258;2022-08-03T15:03:58;3.50;;;0.95;;
58446;SDS011;44240;51.840;7.258;2022-08-03T15:06:24;5.07;;;1.02;;
58446;SDS011;44240;51.840;7.258;2022-08-03T15:08:49;5.30;;;1.38;;
58446;SDS011;44240;51.840;7.258;2022-08-03T15:11:15;3.40;;;1.00;;
58446;SDS011;44240;51.840;7.258;2022-08-03T15:13:40;3.40;;;1.00;;
58446;SDS011;44240;51.840;7.258;2022-08-03T15:16:06;2.58;;;0.85;;
58446;SDS011;44240;51.840;7.258;2022-08-03T15:18:33;4.38;;;0.98;;
58446;SDS011;44240;51.840;7.258;2022-08-03T15:20:58;4.00;;;0.88;;
58446;SDS011;44240;51.840;7.258;2022-08-03T15:23:24;4.40;;;1.27;;
58446;SDS011;44240;51.840;7.258;2022-08-03T15:25:50;3.80;;;0.88;;
58446;SDS011;44240;51.840;7.258;2022-08-03T15:28:16;4.28;;;0.90;;